createdAt,value
2023-05-31T00:01:35.968Z,21.76
2023-05-31T00:04:03.677Z,21.75
2023-05-31T00:06:31.179Z,21.70
2023-05-31T00:08:57.769Z,21.76
2023-05-31T00:11:24.357Z,21.76
2023-05-31T00:13:50.955Z,21.62
2023-05-31T00:16:45.780Z,21.61
2023-05-31T00:19:04.225Z,21.61
2023-05-31T00:21:32.112Z,21.59
2023-05-31T00:23:58.747Z,21.53
2023-05-31T00:26:26.166Z,21.54
2023-05-31T00:28:52.897Z,21.52
2023-05-31T00:31:19.713Z,21.48
2023-05-31T00:33:46.371Z,21.46
2023-05-31T00:36:13.181Z,21.39
2023-05-31T00:38:39.825Z,21.41
2023-05-31T00:41:09.438Z,21.36
2023-05-31T00:43:36.141Z,21.36
2023-05-31T00:46:03.780Z,21.35
2023-05-31T00:48:31.150Z,21.38
2023-05-31T00:50:58.463Z,21.29
2023-05-31T00:53:25.356Z,21.28
2023-05-31T00:55:53.459Z,21.24
2023-05-31T00:58:20.897Z,21.23
2023-05-31T01:00:47.932Z,21.27
2023-05-31T01:03:16.073Z,21.29
2023-05-31T01:05:42.918Z,21.23
2023-05-31T01:08:09.495Z,21.20
2023-05-31T01:10:36.526Z,21.15
2023-05-31T01:13:21.714Z,21.21
2023-05-31T01:15:58.147Z,21.17
2023-05-31T01:18:46.082Z,21.05
2023-05-31T01:21:13.052Z,21.05
2023-05-31T01:24:01.419Z,21.01
2023-05-31T01:26:39.109Z,20.88
2023-05-31T01:29:13.082Z,20.77
2023-05-31T01:31:41.443Z,20.77
2023-05-31T01:34:09.289Z,20.82
2023-05-31T01:36:36.669Z,20.69
2023-05-31T01:39:04.654Z,20.61
2023-05-31T01:41:34.357Z,20.62
2023-05-31T01:44:01.753Z,20.70
2023-05-31T01:46:28.750Z,20.65
2023-05-31T01:48:56.616Z,20.70
2023-05-31T01:51:23.505Z,20.79
2023-05-31T01:53:50.403Z,20.73
2023-05-31T01:56:17.586Z,20.70
2023-05-31T01:58:48.850Z,20.58
2023-05-31T02:01:17.537Z,20.42
2023-05-31T02:03:44.630Z,20.48
2023-05-31T02:06:14.280Z,20.62
2023-05-31T02:08:43.535Z,20.59
2023-05-31T02:11:10.255Z,20.55
2023-05-31T02:13:36.835Z,20.49
2023-05-31T02:16:06.928Z,20.48
2023-05-31T02:18:33.519Z,20.42
2023-05-31T02:21:00.330Z,20.41
2023-05-31T02:23:27.365Z,20.38
2023-05-31T02:25:54.331Z,20.20
2023-05-31T02:28:21.081Z,20.21
2023-05-31T02:31:02.178Z,20.24
2023-05-31T02:33:29.181Z,20.23
2023-05-31T02:35:58.187Z,20.20
2023-05-31T02:38:25.279Z,20.24
2023-05-31T02:40:51.963Z,20.18
2023-05-31T02:43:18.608Z,20.11
2023-05-31T02:45:45.546Z,20.07
2023-05-31T02:48:12.204Z,20.05
2023-05-31T02:50:38.837Z,20.07
2023-05-31T02:53:05.533Z,20.07
2023-05-31T02:55:33.126Z,20.10
2023-05-31T02:58:00.219Z,20.01
2023-05-31T03:00:30.031Z,19.99
2023-05-31T03:02:56.711Z,19.98
2023-05-31T03:05:24.502Z,19.98
2023-05-31T03:07:51.513Z,19.94
2023-05-31T03:10:18.096Z,20.01
2023-05-31T03:12:44.782Z,20.03
2023-05-31T03:15:11.502Z,20.06
2023-05-31T03:17:38.480Z,19.92
2023-05-31T03:20:09.912Z,19.96
2023-05-31T03:22:38.099Z,19.94
2023-05-31T03:25:05.948Z,19.96
2023-05-31T03:27:32.969Z,19.98
2023-05-31T03:29:59.655Z,19.89
2023-05-31T03:32:26.635Z,19.92
2023-05-31T03:34:53.401Z,19.86
2023-05-31T03:37:20.006Z,19.87
2023-05-31T03:39:46.698Z,19.83
2023-05-31T03:42:13.951Z,19.85
2023-05-31T03:44:40.711Z,19.83
2023-05-31T03:47:07.956Z,19.90
2023-05-31T03:49:34.601Z,19.84
2023-05-31T03:52:01.307Z,19.98
2023-05-31T03:54:30.137Z,19.97
2023-05-31T03:56:56.729Z,19.86
2023-05-31T03:59:23.302Z,19.78
2023-05-31T04:01:49.898Z,19.80
2023-05-31T04:04:16.668Z,19.87
2023-05-31T04:06:43.554Z,19.84
2023-05-31T04:09:10.146Z,19.86
2023-05-31T04:11:36.775Z,19.89
2023-05-31T04:14:03.355Z,19.90
2023-05-31T04:16:30.085Z,19.83
2023-05-31T04:18:56.906Z,19.89
2023-05-31T04:21:23.468Z,19.88
2023-05-31T04:23:51.383Z,19.95
2023-05-31T04:26:20.116Z,19.99
2023-05-31T04:28:53.030Z,19.87
2023-05-31T04:31:20.137Z,19.88
2023-05-31T04:33:47.196Z,19.87
2023-05-31T04:36:13.757Z,19.91
2023-05-31T04:38:40.464Z,19.92
2023-05-31T04:41:07.285Z,20.04
2023-05-31T04:43:33.875Z,20.04
2023-05-31T04:46:01.637Z,20.01
2023-05-31T04:48:28.940Z,20.02
2023-05-31T04:50:56.344Z,19.86
2023-05-31T04:53:24.869Z,19.86
2023-05-31T04:55:52.793Z,19.85
2023-05-31T04:58:20.461Z,19.88
2023-05-31T05:00:47.949Z,19.86
2023-05-31T05:03:15.242Z,19.78
2023-05-31T05:05:42.177Z,19.83
2023-05-31T05:08:09.365Z,19.81
2023-05-31T05:10:35.921Z,19.82
2023-05-31T05:13:02.499Z,19.89
2023-05-31T05:15:29.066Z,19.84
2023-05-31T05:17:56.121Z,19.94
2023-05-31T05:20:23.030Z,20.01
2023-05-31T05:22:55.758Z,20.04
2023-05-31T05:25:23.621Z,20.03
2023-05-31T05:27:51.203Z,20.01
2023-05-31T05:30:18.379Z,20.12
2023-05-31T05:32:45.261Z,20.16
2023-05-31T05:35:11.880Z,20.13
2023-05-31T05:37:38.910Z,20.14
2023-05-31T05:40:07.853Z,20.23
2023-05-31T05:42:37.650Z,20.35
2023-05-31T05:45:10.845Z,20.38
2023-05-31T05:47:37.961Z,20.31
2023-05-31T05:50:05.151Z,20.08
2023-05-31T05:52:31.781Z,19.93
2023-05-31T05:54:58.557Z,20.07
2023-05-31T05:57:26.212Z,19.95
2023-05-31T05:59:53.640Z,20.14
2023-05-31T06:02:21.569Z,20.17
2023-05-31T06:04:48.277Z,20.17
2023-05-31T06:07:14.981Z,20.18
2023-05-31T06:09:42.158Z,20.27
2023-05-31T06:12:09.428Z,20.36
2023-05-31T06:14:36.363Z,20.35
2023-05-31T06:17:03.087Z,20.07
2023-05-31T06:19:29.796Z,20.07
2023-05-31T06:21:58.916Z,20.16
2023-05-31T06:24:25.625Z,20.34
2023-05-31T06:26:52.221Z,20.35
2023-05-31T06:29:18.942Z,19.98
2023-05-31T06:31:45.552Z,19.90
2023-05-31T06:34:12.124Z,19.37
2023-05-31T06:36:38.985Z,19.33
2023-05-31T06:39:05.548Z,19.24
2023-05-31T06:41:34.206Z,19.32
2023-05-31T06:44:00.927Z,19.63
2023-05-31T06:46:27.574Z,19.93
2023-05-31T06:49:00.628Z,19.73
2023-05-31T06:51:31.939Z,19.56
2023-05-31T06:53:59.318Z,19.69
2023-05-31T06:56:27.516Z,19.17
2023-05-31T06:58:54.105Z,18.91
2023-05-31T07:01:22.941Z,18.92
2023-05-31T07:03:49.582Z,18.84
2023-05-31T07:06:16.381Z,18.98
2023-05-31T07:08:42.959Z,19.09
2023-05-31T07:11:09.532Z,19.31
2023-05-31T07:13:36.150Z,19.53
2023-05-31T07:16:02.741Z,19.45
2023-05-31T07:18:29.367Z,19.79
2023-05-31T07:20:58.446Z,19.26
2023-05-31T07:23:26.197Z,19.53
2023-05-31T07:25:52.962Z,19.81
2023-05-31T07:28:19.602Z,19.59
2023-05-31T07:30:46.362Z,19.28
2023-05-31T07:33:13.081Z,18.80
2023-05-31T07:35:58.334Z,19.56
2023-05-31T07:38:25.438Z,19.75
2023-05-31T07:40:52.117Z,20.03
2023-05-31T07:43:22.342Z,19.88
2023-05-31T07:45:49.741Z,19.70
2023-05-31T07:48:18.210Z,19.68
2023-05-31T07:50:45.663Z,19.86
2023-05-31T07:53:12.456Z,19.67
2023-05-31T07:55:39.256Z,19.49
2023-05-31T07:58:06.555Z,19.85
2023-05-31T08:00:35.192Z,19.54
2023-05-31T08:03:02.504Z,19.52
2023-05-31T08:05:30.005Z,19.15
2023-05-31T08:07:56.655Z,19.46
2023-05-31T08:10:23.271Z,19.08
2023-05-31T08:12:50.405Z,19.52
2023-05-31T08:15:17.112Z,19.67
2023-05-31T08:17:44.526Z,19.88
2023-05-31T08:20:13.261Z,19.43
2023-05-31T08:22:40.304Z,19.89
2023-05-31T08:25:08.348Z,19.58
2023-05-31T08:27:34.957Z,19.32
2023-05-31T08:30:01.758Z,19.22
2023-05-31T08:32:28.436Z,19.26
2023-05-31T08:34:55.059Z,19.19
2023-05-31T08:37:21.689Z,19.74
2023-05-31T08:39:48.389Z,19.48
2023-05-31T08:42:44.172Z,19.16
2023-05-31T08:45:11.758Z,18.96
2023-05-31T08:47:45.252Z,18.96
2023-05-31T08:50:13.560Z,19.19
2023-05-31T08:52:41.038Z,19.58
2023-05-31T08:55:08.859Z,20.06
2023-05-31T08:57:36.748Z,19.88
2023-05-31T09:00:09.598Z,20.12
2023-05-31T09:02:36.702Z,20.18
2023-05-31T09:05:05.203Z,20.40
2023-05-31T09:07:32.039Z,19.96
2023-05-31T09:09:58.693Z,19.86
2023-05-31T09:12:25.448Z,20.01
2023-05-31T09:14:52.783Z,20.01
2023-05-31T09:17:19.451Z,20.21
2023-05-31T09:19:54.195Z,20.63
2023-05-31T09:22:24.050Z,20.75
2023-05-31T09:24:58.155Z,21.00
2023-05-31T09:27:25.325Z,20.76
2023-05-31T09:29:55.111Z,20.86
2023-05-31T09:32:22.281Z,21.11
2023-05-31T09:34:49.066Z,21.10
2023-05-31T09:37:24.340Z,21.13
2023-05-31T09:39:58.340Z,21.50
2023-05-31T09:42:28.200Z,21.09
2023-05-31T09:44:54.931Z,20.91
2023-05-31T09:47:28.399Z,20.72
2023-05-31T09:49:55.903Z,20.85
2023-05-31T09:52:28.849Z,21.12
2023-05-31T09:54:58.015Z,21.07
2023-05-31T09:57:41.830Z,21.41
2023-05-31T10:00:22.263Z,21.47
2023-05-31T10:02:49.108Z,21.52
2023-05-31T10:05:17.483Z,21.44
2023-05-31T10:07:46.333Z,21.31
2023-05-31T10:10:13.149Z,21.10
2023-05-31T10:12:58.182Z,21.00
2023-05-31T10:15:28.358Z,21.09
2023-05-31T10:18:08.282Z,21.23
2023-05-31T10:20:57.252Z,21.36
2023-05-31T10:23:25.635Z,21.18
2023-05-31T10:26:16.280Z,21.20
2023-05-31T10:29:07.633Z,21.50
2023-05-31T10:31:49.681Z,21.73
2023-05-31T10:34:24.283Z,21.92
2023-05-31T10:36:52.810Z,22.08
2023-05-31T10:39:34.010Z,22.47
2023-05-31T10:42:39.320Z,21.94
2023-05-31T10:45:27.778Z,22.01
2023-05-31T10:48:10.514Z,22.06
2023-05-31T10:50:52.593Z,22.18
2023-05-31T10:53:19.236Z,22.37
2023-05-31T10:55:48.561Z,22.47
2023-05-31T10:58:38.951Z,22.56
2023-05-31T11:01:08.925Z,22.67
2023-05-31T11:03:40.298Z,22.84
2023-05-31T11:06:10.326Z,23.05
2023-05-31T11:08:37.889Z,23.30
2023-05-31T11:11:45.744Z,23.40
2023-05-31T11:14:26.976Z,23.50
2023-05-31T11:17:04.865Z,23.45
2023-05-31T11:19:33.518Z,23.16
2023-05-31T11:22:10.359Z,23.41
2023-05-31T11:24:54.227Z,23.16
2023-05-31T11:27:35.198Z,23.32
2023-05-31T11:30:02.867Z,23.44
2023-05-31T11:32:35.394Z,23.23
2023-05-31T11:35:12.361Z,23.26
2023-05-31T11:37:40.909Z,23.42
2023-05-31T11:40:13.026Z,23.56
2023-05-31T11:42:42.490Z,23.72
2023-05-31T11:45:11.509Z,23.47
2023-05-31T11:47:54.396Z,23.52
2023-05-31T11:50:21.692Z,23.67
2023-05-31T11:52:48.464Z,23.71
2023-05-31T11:55:18.846Z,23.72
2023-05-31T11:57:47.968Z,23.96
2023-05-31T12:00:16.532Z,24.02
2023-05-31T12:02:45.594Z,23.98
2023-05-31T12:05:19.076Z,24.02
2023-05-31T12:07:46.628Z,24.15
2023-05-31T12:10:13.556Z,24.22
2023-05-31T12:12:43.456Z,24.06
2023-05-31T12:15:13.599Z,23.99
2023-05-31T12:17:41.252Z,24.01
2023-05-31T12:20:09.242Z,24.22
2023-05-31T12:22:35.982Z,24.51
2023-05-31T12:25:02.638Z,24.78
2023-05-31T12:27:45.545Z,24.67
2023-05-31T12:30:19.357Z,24.73
2023-05-31T12:32:47.213Z,24.82
2023-05-31T12:35:15.650Z,24.85
2023-05-31T12:37:42.624Z,24.60
2023-05-31T12:40:15.350Z,24.90
2023-05-31T12:42:43.777Z,25.03
2023-05-31T12:45:11.176Z,25.22
2023-05-31T12:47:38.315Z,25.19
2023-05-31T12:50:07.932Z,24.98
2023-05-31T12:52:36.804Z,25.02
2023-05-31T12:55:03.689Z,25.01
2023-05-31T12:57:30.496Z,25.16
2023-05-31T13:00:09.213Z,25.23
2023-05-31T13:02:36.076Z,25.31
2023-05-31T13:05:02.832Z,25.25
2023-05-31T13:07:29.710Z,25.34
2023-05-31T13:09:56.762Z,25.49
2023-05-31T13:12:23.347Z,25.51
2023-05-31T13:14:53.128Z,25.69
2023-05-31T13:17:19.916Z,25.44
2023-05-31T13:19:56.796Z,25.15
2023-05-31T13:22:33.606Z,24.70
2023-05-31T13:25:00.336Z,24.52
2023-05-31T13:27:27.023Z,24.25
2023-05-31T13:29:53.646Z,24.05
2023-05-31T13:32:20.319Z,23.79
2023-05-31T13:34:46.887Z,23.62
2023-05-31T13:37:13.518Z,23.85
2023-05-31T13:39:40.080Z,23.70
2023-05-31T13:42:07.888Z,23.64
2023-05-31T13:44:34.525Z,23.71
2023-05-31T13:47:01.372Z,23.68
2023-05-31T13:49:28.011Z,23.69
2023-05-31T13:51:54.645Z,23.69
2023-05-31T13:54:21.390Z,23.12
2023-05-31T13:56:48.201Z,23.17
2023-05-31T13:59:14.813Z,23.24
2023-05-31T14:01:41.462Z,23.25
2023-05-31T14:04:08.792Z,23.22
2023-05-31T14:06:37.053Z,23.27
2023-05-31T14:09:03.701Z,23.14
2023-05-31T14:11:31.033Z,22.97
2023-05-31T14:13:57.641Z,22.94
2023-05-31T14:16:24.680Z,22.76
2023-05-31T14:18:53.527Z,22.64
2023-05-31T14:21:22.192Z,22.65
2023-05-31T14:23:48.761Z,22.60
2023-05-31T14:26:15.383Z,22.52
2023-05-31T14:28:41.975Z,22.61
2023-05-31T14:31:08.637Z,22.64
2023-05-31T14:33:35.281Z,22.68
2023-05-31T14:36:02.404Z,22.73
2023-05-31T14:38:35.007Z,22.60
2023-05-31T14:41:02.662Z,22.62
2023-05-31T14:43:29.428Z,22.69
2023-05-31T14:45:56.091Z,22.51
2023-05-31T14:48:22.853Z,22.70
2023-05-31T14:50:49.438Z,22.59
2023-05-31T14:53:16.238Z,22.57
2023-05-31T14:55:42.821Z,22.54
2023-05-31T14:58:11.001Z,22.54
2023-05-31T15:00:37.836Z,22.58
2023-05-31T15:03:04.459Z,22.63
2023-05-31T15:05:31.156Z,22.54
2023-05-31T15:07:57.811Z,22.48
2023-05-31T15:10:27.286Z,22.36
2023-05-31T15:12:54.340Z,22.29
2023-05-31T15:15:21.042Z,22.19
2023-05-31T15:17:47.904Z,22.22
2023-05-31T15:20:14.608Z,22.22
2023-05-31T15:22:41.304Z,22.19
2023-05-31T15:25:08.393Z,22.26
2023-05-31T15:27:34.974Z,22.30
2023-05-31T15:30:01.665Z,22.48
2023-05-31T15:32:28.276Z,22.32
2023-05-31T15:34:55.319Z,22.35
2023-05-31T15:37:22.715Z,22.31
2023-05-31T15:39:49.315Z,22.39
2023-05-31T15:42:15.947Z,22.30
2023-05-31T15:44:42.520Z,22.37
2023-05-31T15:47:09.341Z,22.34
2023-05-31T15:49:37.183Z,22.34
2023-05-31T15:52:03.994Z,22.35
2023-05-31T15:54:30.551Z,22.27
2023-05-31T15:56:57.356Z,22.26
2023-05-31T15:59:24.035Z,22.23
2023-05-31T16:01:52.677Z,22.18
2023-05-31T16:04:19.320Z,22.13
2023-05-31T16:06:45.955Z,22.14
2023-05-31T16:09:12.636Z,22.16
2023-05-31T16:11:39.868Z,21.94
2023-05-31T16:14:06.485Z,21.82
2023-05-31T16:16:34.786Z,21.69
2023-05-31T16:19:01.409Z,21.53
2023-05-31T16:21:28.139Z,21.46
2023-05-31T16:23:54.792Z,21.50
2023-05-31T16:26:22.019Z,21.42
2023-05-31T16:28:49.706Z,21.14
2023-05-31T16:31:17.590Z,21.07
2023-05-31T16:33:45.881Z,20.80
2023-05-31T16:36:12.518Z,20.27
2023-05-31T16:38:39.094Z,19.92
2023-05-31T16:41:05.782Z,19.63
2023-05-31T16:43:32.348Z,19.47
2023-05-31T16:45:59.585Z,19.50
2023-05-31T16:48:26.506Z,19.43
2023-05-31T16:50:53.203Z,19.34
2023-05-31T16:53:21.439Z,19.25
2023-05-31T16:55:48.153Z,19.23
2023-05-31T16:58:14.795Z,19.17
2023-05-31T17:00:43.791Z,19.24
2023-05-31T17:03:10.592Z,19.27
2023-05-31T17:05:37.426Z,19.22
2023-05-31T17:08:04.225Z,19.32
2023-05-31T17:10:31.218Z,19.33
2023-05-31T17:12:58.195Z,19.26
2023-05-31T17:15:24.778Z,19.26
2023-05-31T17:17:52.442Z,19.31
2023-05-31T17:20:19.079Z,19.27
2023-05-31T17:22:45.721Z,19.32
2023-05-31T17:25:12.343Z,19.34
2023-05-31T17:27:39.052Z,19.33
2023-05-31T17:30:06.376Z,19.33
2023-05-31T17:32:32.949Z,19.31
2023-05-31T17:34:59.815Z,19.23
2023-05-31T17:37:26.436Z,19.15
2023-05-31T17:39:53.044Z,19.06
2023-05-31T17:42:22.024Z,18.40
2023-05-31T17:44:48.560Z,18.29
2023-05-31T17:47:15.280Z,17.92
2023-05-31T17:49:41.888Z,18.15
2023-05-31T17:52:08.677Z,18.15
2023-05-31T17:54:36.075Z,-139.91
2023-05-31T17:57:59.339Z,-139.91
2023-05-31T18:01:24.518Z,-139.91
2023-05-31T18:04:49.709Z,-139.91
2023-05-31T18:08:14.780Z,-139.91
2023-05-31T18:11:40.341Z,-139.91
2023-05-31T18:14:20.271Z,-139.91
2023-05-31T18:16:50.360Z,-139.91
2023-05-31T18:19:16.907Z,-139.91
2023-05-31T18:21:45.397Z,-139.91
2023-05-31T18:24:14.368Z,-139.91
2023-05-31T18:26:41.128Z,-139.91
2023-05-31T18:29:09.816Z,-139.91
2023-05-31T18:31:38.582Z,-139.91
2023-05-31T18:34:05.343Z,-139.91
2023-05-31T18:36:31.904Z,-139.91
2023-05-31T18:38:59.703Z,-139.91
2023-05-31T18:41:27.763Z,-139.91
2023-05-31T18:43:54.544Z,-139.91
2023-05-31T18:46:21.317Z,-139.91
2023-05-31T18:48:48.244Z,-139.91
2023-05-31T18:51:14.803Z,-139.91
2023-05-31T18:53:41.392Z,-139.91
2023-05-31T18:56:08.006Z,-139.91
2023-05-31T18:58:34.711Z,-139.91
2023-05-31T19:01:02.273Z,-139.91
2023-05-31T19:03:29.179Z,-139.91
2023-05-31T19:05:56.808Z,-139.91
2023-05-31T19:08:23.502Z,-139.91
2023-05-31T19:10:50.162Z,-139.91
2023-05-31T19:13:16.802Z,-139.91
2023-05-31T19:15:43.648Z,-139.91
2023-05-31T19:20:48.622Z,-139.91
2023-05-31T19:23:16.944Z,-139.91
2023-05-31T19:25:43.930Z,-139.91
2023-05-31T19:28:11.432Z,-139.91
2023-05-31T19:30:38.493Z,-139.91
2023-05-31T19:33:05.226Z,-139.91
2023-05-31T19:35:32.092Z,-139.91
2023-05-31T19:37:58.759Z,-139.91
2023-05-31T19:40:25.713Z,-139.91
2023-05-31T19:42:52.913Z,-139.91
2023-05-31T19:45:20.244Z,-139.91
2023-05-31T19:47:49.944Z,-139.91
2023-05-31T19:50:17.162Z,-139.91
2023-05-31T19:52:49.788Z,-139.91
2023-05-31T19:55:16.564Z,-139.91
2023-05-31T19:57:43.123Z,-139.91
2023-05-31T20:00:10.322Z,-139.91
2023-05-31T20:02:37.149Z,-139.91
2023-05-31T20:05:04.315Z,-139.91
2023-05-31T20:07:30.924Z,-139.91
2023-05-31T20:09:57.668Z,-139.91
2023-05-31T20:12:25.026Z,-139.91
2023-05-31T20:14:51.710Z,-139.91
2023-05-31T20:17:18.439Z,-139.91
2023-05-31T20:19:45.123Z,-139.91
2023-05-31T20:22:11.979Z,-139.91
2023-05-31T20:24:38.573Z,-139.91
2023-05-31T20:27:06.563Z,-139.91
2023-05-31T20:29:33.235Z,-139.91
2023-05-31T20:31:59.936Z,-139.91
2023-05-31T20:34:26.939Z,-139.91
2023-05-31T20:36:53.836Z,-139.91
2023-05-31T20:39:20.549Z,-139.91
2023-05-31T20:41:47.235Z,-139.91
2023-05-31T20:44:13.932Z,-139.91
2023-05-31T20:46:40.919Z,-139.91
2023-05-31T20:49:08.281Z,-139.91
2023-05-31T20:51:35.720Z,-139.91
2023-05-31T20:54:02.875Z,-139.91
2023-05-31T20:56:30.078Z,-139.91
2023-05-31T20:58:57.199Z,-139.91
2023-05-31T21:01:23.887Z,-139.91
2023-05-31T21:03:51.587Z,-139.91
2023-05-31T21:06:18.400Z,-139.91
2023-05-31T21:08:45.086Z,-139.91
2023-05-31T21:11:11.689Z,-139.91
2023-05-31T21:13:38.672Z,-139.91
2023-05-31T21:16:05.660Z,-139.91
2023-05-31T21:18:32.330Z,-139.91
2023-05-31T21:21:00.964Z,-139.91
2023-05-31T21:23:27.590Z,-139.91
2023-05-31T21:25:54.168Z,-139.91
2023-05-31T21:28:20.921Z,-139.91
2023-05-31T21:30:48.446Z,-139.91
2023-05-31T21:33:15.215Z,-139.91
2023-05-31T21:35:41.929Z,-139.91
2023-05-31T21:38:09.512Z,-139.91
2023-05-31T21:40:36.120Z,-139.91
2023-05-31T21:43:02.707Z,-139.91
2023-05-31T21:45:29.289Z,-139.91
2023-05-31T21:47:55.876Z,-139.91
2023-05-31T21:50:22.546Z,-139.91
2023-05-31T21:52:49.395Z,-139.91
2023-05-31T21:55:16.130Z,-139.91
2023-05-31T21:57:42.733Z,-139.91
2023-05-31T22:00:12.093Z,-139.91
2023-05-31T22:02:38.790Z,-139.91
2023-05-31T22:05:05.979Z,-139.91
2023-05-31T22:07:37.414Z,-139.91
2023-05-31T22:10:05.868Z,-139.91
2023-05-31T22:12:32.769Z,-139.91
2023-05-31T22:15:00.388Z,-139.91
2023-05-31T22:17:27.810Z,-139.91
2023-05-31T22:20:00.952Z,-139.91
2023-05-31T22:22:29.379Z,-139.91
2023-05-31T22:25:09.245Z,-139.91
2023-05-31T22:27:39.932Z,-139.91
2023-05-31T22:30:07.036Z,-139.91
2023-05-31T22:32:33.724Z,-139.91
2023-05-31T22:35:00.314Z,-139.91
2023-05-31T22:37:26.893Z,-139.91
2023-05-31T22:39:53.522Z,-139.91
2023-05-31T22:42:20.163Z,-139.91
2023-05-31T22:44:46.744Z,-139.91
2023-05-31T22:47:13.446Z,-139.91
2023-05-31T22:49:40.144Z,-139.91
2023-05-31T22:52:07.151Z,-139.91
2023-05-31T22:54:33.831Z,-139.91
2023-05-31T22:57:00.595Z,-139.91
2023-05-31T22:59:27.460Z,-139.91
2023-05-31T23:01:54.092Z,-139.91
2023-05-31T23:04:20.715Z,-139.91
2023-05-31T23:06:47.401Z,-139.91
2023-05-31T23:09:15.752Z,-139.91
2023-05-31T23:11:46.151Z,-139.91
2023-05-31T23:14:13.403Z,-139.91
2023-05-31T23:16:42.493Z,-139.91
2023-05-31T23:19:10.357Z,-139.91
2023-05-31T23:21:41.034Z,-139.91
2023-05-31T23:24:08.597Z,-139.91
2023-05-31T23:26:35.705Z,-139.91
2023-05-31T23:29:03.682Z,-139.91
2023-05-31T23:31:30.783Z,-139.91
2023-05-31T23:33:58.624Z,-139.91
2023-05-31T23:36:25.976Z,-139.91
2023-05-31T23:38:53.054Z,-139.91
2023-05-31T23:41:19.947Z,-139.91
2023-05-31T23:43:47.424Z,-139.91
2023-05-31T23:46:14.074Z,-139.91
2023-05-31T23:48:41.014Z,-139.91
2023-05-31T23:51:08.478Z,-139.91
2023-05-31T23:53:35.703Z,-139.91
2023-05-31T23:56:02.382Z,-139.91
2023-05-31T23:58:29.011Z,-139.91
